CSC8798 ZGSZ-ZUUU
Flight info
| Callsign | CSC8798 |
|---|---|
| Flight time | 2h 6m |
| Altitude | 34100 |
| Route | K0872S1040 MIPAG1 MIPAG W21 TEPID W24 OSNOV G586 QP B330 ELKAL W179 IGNAK IGNAK2E |
| Aircraft | A321/M-SDE3FGHIRWY/LB1 |
Departure
| Time | 2026-04-22 10:09 |
|---|---|
| Airport | Shenzhen Bao'an International Airport (ZGSZ) |
Arrival
| Time | 2026-04-22 12:15 |
|---|---|
| Airport | Chengdu Shuangliu International Airport (ZUUU) |
| Time | Latitude | Longitude | Altitude | Speed | Heading |
|---|---|---|---|---|---|
| 2026-04-22 09:45 | 22.63019 | 113.80882 | 16 ft | 0 kts | 173° |
| 2026-04-22 09:58 | 22.63026 | 113.80881 | 17 ft | 3 kts | 174° |
| 2026-04-22 09:58 | 22.63046 | 113.80879 | 17 ft | 3 kts | 171° |
| 2026-04-22 09:58 | 22.63065 | 113.80874 | 16 ft | 3 kts | 155° |
| 2026-04-22 09:59 | 22.63077 | 113.80868 | 16 ft | 3 kts | 152° |
| 2026-04-22 09:59 | 22.63095 | 113.80858 | 15 ft | 3 kts | 152° |
| 2026-04-22 09:59 | 22.63114 | 113.80847 | 17 ft | 3 kts | 152° |
| 2026-04-22 09:59 | 22.63126 | 113.80840 | 17 ft | 1 kts | 151° |
| 2026-04-22 10:00 | 22.63127 | 113.80839 | 17 ft | 0 kts | 151° |
| 2026-04-22 10:01 | 22.63114 | 113.80848 | 17 ft | 6 kts | 147° |
| 2026-04-22 10:02 | 22.63095 | 113.80891 | 15 ft | 6 kts | 97° |
| 2026-04-22 10:02 | 22.63100 | 113.80960 | 15 ft | 13 kts | 83° |
| 2026-04-22 10:02 | 22.63112 | 113.81062 | 15 ft | 13 kts | 83° |
| 2026-04-22 10:02 | 22.63123 | 113.81154 | 15 ft | 12 kts | 83° |
| 2026-04-22 10:03 | 22.63140 | 113.81233 | 17 ft | 10 kts | 55° |
| 2026-04-22 10:03 | 22.63200 | 113.81244 | 15 ft | 12 kts | 339° |
| 2026-04-22 10:03 | 22.63302 | 113.81189 | 17 ft | 21 kts | 333° |
| 2026-04-22 10:03 | 22.63448 | 113.81108 | 15 ft | 24 kts | 333° |
| 2026-04-22 10:04 | 22.63589 | 113.81030 | 15 ft | 22 kts | 333° |
| 2026-04-22 10:04 | 22.63721 | 113.80958 | 16 ft | 20 kts | 333° |
| 2026-04-22 10:04 | 22.63843 | 113.80891 | 15 ft | 19 kts | 333° |
| 2026-04-22 10:04 | 22.63957 | 113.80828 | 15 ft | 20 kts | 333° |
| 2026-04-22 10:05 | 22.64099 | 113.80750 | 15 ft | 24 kts | 333° |
| 2026-04-22 10:05 | 22.64239 | 113.80673 | 16 ft | 22 kts | 333° |
| 2026-04-22 10:05 | 22.64371 | 113.80601 | 15 ft | 20 kts | 333° |
| 2026-04-22 10:05 | 22.64493 | 113.80534 | 15 ft | 19 kts | 333° |
| 2026-04-22 10:06 | 22.64607 | 113.80472 | 15 ft | 19 kts | 333° |
| 2026-04-22 10:06 | 22.64725 | 113.80407 | 15 ft | 18 kts | 333° |
| 2026-04-22 10:06 | 22.64834 | 113.80347 | 15 ft | 17 kts | 332° |
| 2026-04-22 10:06 | 22.64937 | 113.80290 | 15 ft | 19 kts | 333° |
| 2026-04-22 10:07 | 22.65068 | 113.80218 | 15 ft | 21 kts | 333° |
| 2026-04-22 10:07 | 22.65170 | 113.80167 | 15 ft | 13 kts | 351° |
| 2026-04-22 10:07 | 22.65231 | 113.80227 | 15 ft | 15 kts | 63° |
| 2026-04-22 10:07 | 22.65255 | 113.80324 | 15 ft | 12 kts | 121° |
| 2026-04-22 10:08 | 22.65199 | 113.80363 | 15 ft | 6 kts | 152° |
| 2026-04-22 10:08 | 22.65131 | 113.80401 | 15 ft | 21 kts | 153° |
| 2026-04-22 10:08 | 22.64806 | 113.80579 | 16 ft | 84 kts | 153° |
| 2026-04-22 10:08 | 22.64123 | 113.80953 | 16 ft | 134 kts | 153° |
| 2026-04-22 10:09 | 22.63171 | 113.81478 | 18 ft | 171 kts | 154° |
| 2026-04-22 10:09 | 22.62079 | 113.82083 | 417 ft | 176 kts | 154° |
| 2026-04-22 10:09 | 22.60978 | 113.82693 | 929 ft | 179 kts | 157° |
| 2026-04-22 10:09 | 22.59861 | 113.83305 | 1475 ft | 180 kts | 158° |
| 2026-04-22 10:10 | 22.58741 | 113.83908 | 1901 ft | 183 kts | 158° |
| 2026-04-22 10:10 | 22.57549 | 113.84549 | 2024 ft | 199 kts | 158° |
| 2026-04-22 10:10 | 22.56265 | 113.85243 | 2139 ft | 216 kts | 158° |
| 2026-04-22 10:10 | 22.54865 | 113.86004 | 2345 ft | 233 kts | 157° |
| 2026-04-22 10:11 | 22.53399 | 113.86808 | 2827 ft | 238 kts | 156° |
| 2026-04-22 10:11 | 22.51922 | 113.87620 | 3387 ft | 240 kts | 157° |
| 2026-04-22 10:11 | 22.50520 | 113.88626 | 3981 ft | 250 kts | 134° |
| 2026-04-22 10:11 | 22.49796 | 113.90364 | 4549 ft | 264 kts | 97° |
| 2026-04-22 10:12 | 22.50070 | 113.92354 | 4944 ft | 280 kts | 68° |
| 2026-04-22 10:12 | 22.51190 | 113.94123 | 5301 ft | 291 kts | 39° |
| 2026-04-22 10:12 | 22.52945 | 113.95181 | 5824 ft | 291 kts | 11° |
| 2026-04-22 10:12 | 22.54929 | 113.95276 | 6412 ft | 284 kts | 343° |
| 2026-04-22 10:13 | 22.56733 | 113.94492 | 6993 ft | 279 kts | 327° |
| 2026-04-22 10:13 | 22.58453 | 113.93499 | 7588 ft | 281 kts | 327° |
| 2026-04-22 10:13 | 22.60190 | 113.92499 | 8188 ft | 284 kts | 327° |
| 2026-04-22 10:13 | 22.61943 | 113.91494 | 8804 ft | 286 kts | 327° |
| 2026-04-22 10:14 | 22.63710 | 113.90485 | 9415 ft | 288 kts | 327° |
| 2026-04-22 10:14 | 22.65491 | 113.89468 | 9969 ft | 291 kts | 327° |
| 2026-04-22 10:14 | 22.67338 | 113.88408 | 10142 ft | 310 kts | 327° |
| 2026-04-22 10:14 | 22.69300 | 113.87275 | 10265 ft | 329 kts | 327° |
| 2026-04-22 10:15 | 22.71379 | 113.86076 | 10384 ft | 348 kts | 328° |
| 2026-04-22 10:15 | 22.73566 | 113.84815 | 10498 ft | 365 kts | 328° |
| 2026-04-22 10:15 | 22.75854 | 113.83503 | 10708 ft | 377 kts | 328° |
| 2026-04-22 10:15 | 22.78193 | 113.82169 | 11133 ft | 382 kts | 328° |
| 2026-04-22 10:16 | 22.80550 | 113.80825 | 11614 ft | 385 kts | 328° |
| 2026-04-22 10:16 | 22.82933 | 113.79465 | 12110 ft | 388 kts | 328° |
| 2026-04-22 10:16 | 22.85324 | 113.78097 | 12615 ft | 390 kts | 328° |
| 2026-04-22 10:16 | 22.87733 | 113.76718 | 13108 ft | 393 kts | 328° |
| 2026-04-22 10:17 | 22.90128 | 113.75277 | 13592 ft | 394 kts | 326° |
| 2026-04-22 10:17 | 22.92461 | 113.73774 | 14015 ft | 396 kts | 325° |
| 2026-04-22 10:17 | 22.94812 | 113.72201 | 14423 ft | 398 kts | 324° |
| 2026-04-22 10:17 | 22.97162 | 113.70604 | 14828 ft | 400 kts | 324° |
| 2026-04-22 10:18 | 22.99525 | 113.68997 | 15223 ft | 402 kts | 324° |
| 2026-04-22 10:18 | 23.01901 | 113.67391 | 15602 ft | 404 kts | 325° |
| 2026-04-22 10:18 | 23.04300 | 113.65785 | 15985 ft | 406 kts | 325° |
| 2026-04-22 10:18 | 23.06715 | 113.64183 | 16374 ft | 408 kts | 325° |
| 2026-04-22 10:19 | 23.09147 | 113.62579 | 16753 ft | 410 kts | 325° |
| 2026-04-22 10:19 | 23.11589 | 113.60967 | 17130 ft | 412 kts | 325° |
| 2026-04-22 10:19 | 23.14037 | 113.59347 | 17506 ft | 414 kts | 325° |
| 2026-04-22 10:19 | 23.16371 | 113.57800 | 17836 ft | 416 kts | 325° |
| 2026-04-22 10:20 | 23.18924 | 113.56105 | 18160 ft | 418 kts | 325° |
| 2026-04-22 10:20 | 23.21407 | 113.54456 | 18463 ft | 419 kts | 325° |
| 2026-04-22 10:20 | 23.23907 | 113.52795 | 18766 ft | 421 kts | 325° |
| 2026-04-22 10:20 | 23.26409 | 113.51131 | 19064 ft | 423 kts | 325° |
| 2026-04-22 10:21 | 23.28921 | 113.49460 | 19364 ft | 424 kts | 325° |
| 2026-04-22 10:21 | 23.31443 | 113.47785 | 19668 ft | 426 kts | 325° |
| 2026-04-22 10:21 | 23.33978 | 113.46102 | 19968 ft | 428 kts | 325° |
| 2026-04-22 10:21 | 23.36525 | 113.44410 | 20246 ft | 430 kts | 325° |
| 2026-04-22 10:22 | 23.39082 | 113.42709 | 20545 ft | 431 kts | 325° |
| 2026-04-22 10:22 | 23.41642 | 113.41003 | 20840 ft | 433 kts | 325° |
| 2026-04-22 10:22 | 23.44216 | 113.39286 | 21131 ft | 434 kts | 325° |
| 2026-04-22 10:22 | 23.46795 | 113.37563 | 21411 ft | 436 kts | 325° |
| 2026-04-22 10:23 | 23.49387 | 113.35834 | 21710 ft | 438 kts | 325° |
| 2026-04-22 10:23 | 23.51988 | 113.34101 | 21973 ft | 439 kts | 325° |
| 2026-04-22 10:23 | 23.54597 | 113.32360 | 22254 ft | 440 kts | 325° |
| 2026-04-22 10:23 | 23.57210 | 113.30615 | 22532 ft | 442 kts | 325° |
| 2026-04-22 10:24 | 23.59836 | 113.28860 | 22813 ft | 443 kts | 325° |
| 2026-04-22 10:24 | 23.62465 | 113.27093 | 23083 ft | 444 kts | 323° |
| 2026-04-22 10:24 | 23.64903 | 113.25030 | 23334 ft | 442 kts | 314° |
| 2026-04-22 10:24 | 23.66968 | 113.22560 | 23551 ft | 441 kts | 305° |
| 2026-04-22 10:25 | 23.68617 | 113.19755 | 23760 ft | 439 kts | 296° |
| 2026-04-22 10:25 | 23.69907 | 113.16736 | 23962 ft | 439 kts | 293° |
| 2026-04-22 10:25 | 23.71164 | 113.13695 | 24172 ft | 441 kts | 293° |
| 2026-04-22 10:25 | 23.72427 | 113.10642 | 24375 ft | 442 kts | 293° |
| 2026-04-22 10:26 | 23.73694 | 113.07583 | 24578 ft | 443 kts | 293° |
| 2026-04-22 10:26 | 23.74985 | 113.04524 | 24796 ft | 444 kts | 296° |
| 2026-04-22 10:26 | 23.76658 | 113.01679 | 24979 ft | 448 kts | 307° |
| 2026-04-22 10:26 | 23.78824 | 112.99223 | 25177 ft | 453 kts | 317° |
| 2026-04-22 10:27 | 23.81416 | 112.97237 | 25398 ft | 459 kts | 327° |
| 2026-04-22 10:27 | 23.84347 | 112.95815 | 25621 ft | 465 kts | 338° |
| 2026-04-22 10:27 | 23.87455 | 112.94773 | 25839 ft | 467 kts | 339° |
| 2026-04-22 10:27 | 23.90570 | 112.93747 | 26042 ft | 469 kts | 339° |
| 2026-04-22 10:28 | 23.93694 | 112.92719 | 26279 ft | 469 kts | 339° |
| 2026-04-22 10:28 | 23.96815 | 112.91689 | 26578 ft | 467 kts | 339° |
| 2026-04-22 10:28 | 23.99920 | 112.90660 | 26863 ft | 466 kts | 339° |
| 2026-04-22 10:28 | 24.03024 | 112.89629 | 27144 ft | 465 kts | 339° |
| 2026-04-22 10:29 | 24.06117 | 112.88602 | 27434 ft | 465 kts | 339° |
| 2026-04-22 10:29 | 24.09207 | 112.87574 | 27721 ft | 464 kts | 339° |
| 2026-04-22 10:29 | 24.12292 | 112.86544 | 28004 ft | 463 kts | 338° |
| 2026-04-22 10:29 | 24.15368 | 112.85513 | 28278 ft | 462 kts | 338° |
| 2026-04-22 10:30 | 24.18446 | 112.84485 | 28504 ft | 462 kts | 338° |
| 2026-04-22 10:30 | 24.21518 | 112.83463 | 28769 ft | 462 kts | 338° |
| 2026-04-22 10:30 | 24.24592 | 112.82442 | 29032 ft | 461 kts | 338° |
| 2026-04-22 10:30 | 24.27657 | 112.81424 | 29307 ft | 460 kts | 338° |
| 2026-04-22 10:31 | 24.30715 | 112.80408 | 29557 ft | 459 kts | 338° |
| 2026-04-22 10:31 | 24.33774 | 112.79391 | 29800 ft | 459 kts | 338° |
| 2026-04-22 10:31 | 24.36871 | 112.78359 | 30038 ft | 459 kts | 338° |
| 2026-04-22 10:31 | 24.39917 | 112.77343 | 30241 ft | 458 kts | 338° |
| 2026-04-22 10:32 | 24.42841 | 112.76042 | 30447 ft | 450 kts | 326° |
| 2026-04-22 10:32 | 24.45379 | 112.74094 | 30676 ft | 442 kts | 314° |
| 2026-04-22 10:32 | 24.47428 | 112.71618 | 30889 ft | 436 kts | 302° |
| 2026-04-22 10:32 | 24.48920 | 112.68743 | 31115 ft | 432 kts | 291° |
| 2026-04-22 10:33 | 24.49809 | 112.65603 | 31339 ft | 430 kts | 280° |
| 2026-04-22 10:33 | 24.50186 | 112.62352 | 31563 ft | 430 kts | 276° |
| 2026-04-22 10:33 | 24.50505 | 112.59088 | 31769 ft | 430 kts | 276° |
| 2026-04-22 10:33 | 24.50817 | 112.55830 | 31942 ft | 429 kts | 276° |
| 2026-04-22 10:34 | 24.51437 | 112.49339 | 31995 ft | 426 kts | 276° |
| 2026-04-22 10:34 | 24.52063 | 112.42887 | 31998 ft | 425 kts | 276° |
| 2026-04-22 10:35 | 24.52687 | 112.36438 | 32001 ft | 425 kts | 276° |
| 2026-04-22 10:35 | 24.53308 | 112.29989 | 32000 ft | 425 kts | 276° |
| 2026-04-22 10:36 | 24.53918 | 112.23535 | 32004 ft | 425 kts | 276° |
| 2026-04-22 10:36 | 24.54533 | 112.17085 | 31992 ft | 424 kts | 276° |
| 2026-04-22 10:37 | 24.55347 | 112.08502 | 31995 ft | 424 kts | 276° |
| 2026-04-22 10:38 | 24.56054 | 112.00971 | 31989 ft | 424 kts | 276° |
| 2026-04-22 10:38 | 24.56555 | 111.95617 | 31982 ft | 424 kts | 276° |
| 2026-04-22 10:39 | 24.57160 | 111.89173 | 31987 ft | 424 kts | 276° |
| 2026-04-22 10:39 | 24.57754 | 111.82733 | 31989 ft | 424 kts | 276° |
| 2026-04-22 10:40 | 24.58346 | 111.76289 | 31989 ft | 424 kts | 276° |
| 2026-04-22 10:40 | 24.58933 | 111.69849 | 31990 ft | 424 kts | 276° |
| 2026-04-22 10:41 | 24.59523 | 111.63409 | 31993 ft | 424 kts | 276° |
| 2026-04-22 10:41 | 24.60114 | 111.56970 | 31993 ft | 424 kts | 276° |
| 2026-04-22 10:42 | 24.60699 | 111.50527 | 31996 ft | 424 kts | 276° |
| 2026-04-22 10:42 | 24.61278 | 111.44085 | 31996 ft | 424 kts | 276° |
| 2026-04-22 10:43 | 24.61852 | 111.37643 | 31995 ft | 423 kts | 276° |
| 2026-04-22 10:43 | 24.62426 | 111.31200 | 31995 ft | 423 kts | 276° |
| 2026-04-22 10:44 | 24.62993 | 111.24762 | 31997 ft | 424 kts | 275° |
| 2026-04-22 10:44 | 24.63549 | 111.18313 | 32000 ft | 424 kts | 275° |
| 2026-04-22 10:45 | 24.64101 | 111.11870 | 31996 ft | 423 kts | 275° |
| 2026-04-22 10:45 | 24.64652 | 111.05424 | 31999 ft | 424 kts | 275° |
| 2026-04-22 10:46 | 24.65204 | 110.98980 | 31997 ft | 424 kts | 275° |
| 2026-04-22 10:46 | 24.65751 | 110.92533 | 31993 ft | 424 kts | 275° |
| 2026-04-22 10:47 | 24.66291 | 110.86088 | 31993 ft | 424 kts | 275° |
| 2026-04-22 10:47 | 24.67341 | 110.79739 | 31993 ft | 424 kts | 289° |
| 2026-04-22 10:47 | 24.68614 | 110.76815 | 31997 ft | 426 kts | 300° |
| 2026-04-22 10:48 | 24.70380 | 110.74188 | 31994 ft | 430 kts | 309° |
| 2026-04-22 10:48 | 24.74691 | 110.69602 | 31994 ft | 432 kts | 313° |
| 2026-04-22 10:49 | 24.79032 | 110.65026 | 31991 ft | 432 kts | 312° |
| 2026-04-22 10:49 | 24.83367 | 110.60444 | 31998 ft | 432 kts | 313° |
| 2026-04-22 10:50 | 24.87709 | 110.55863 | 31996 ft | 433 kts | 313° |
| 2026-04-22 10:50 | 24.92057 | 110.51275 | 32004 ft | 433 kts | 313° |
| 2026-04-22 10:51 | 24.96402 | 110.46682 | 32010 ft | 432 kts | 312° |
| 2026-04-22 10:51 | 25.00741 | 110.42089 | 32011 ft | 432 kts | 313° |
| 2026-04-22 10:52 | 25.05090 | 110.37500 | 32016 ft | 432 kts | 313° |
| 2026-04-22 10:52 | 25.09438 | 110.32915 | 32020 ft | 433 kts | 313° |
| 2026-04-22 10:53 | 25.13777 | 110.28317 | 32017 ft | 432 kts | 312° |
| 2026-04-22 10:53 | 25.18118 | 110.23717 | 32015 ft | 433 kts | 312° |
| 2026-04-22 10:54 | 25.22458 | 110.19119 | 32026 ft | 433 kts | 313° |
| 2026-04-22 10:54 | 25.26830 | 110.14548 | 32021 ft | 433 kts | 313° |
| 2026-04-22 10:55 | 25.31210 | 110.09990 | 32018 ft | 433 kts | 313° |
| 2026-04-22 10:55 | 25.35579 | 110.05419 | 32028 ft | 432 kts | 313° |
| 2026-04-22 10:56 | 25.39937 | 110.00836 | 32015 ft | 432 kts | 312° |
| 2026-04-22 10:56 | 25.44294 | 109.96251 | 32018 ft | 433 kts | 312° |
| 2026-04-22 10:57 | 25.48653 | 109.91658 | 32024 ft | 433 kts | 312° |
| 2026-04-22 10:57 | 25.53010 | 109.87064 | 32025 ft | 433 kts | 312° |
| 2026-04-22 10:58 | 25.57379 | 109.82468 | 32026 ft | 433 kts | 312° |
| 2026-04-22 10:58 | 25.61741 | 109.77869 | 32033 ft | 433 kts | 312° |
| 2026-04-22 10:59 | 25.66097 | 109.73261 | 32040 ft | 433 kts | 312° |
| 2026-04-22 10:59 | 25.70457 | 109.68644 | 32047 ft | 433 kts | 312° |
| 2026-04-22 11:00 | 25.74809 | 109.64020 | 32050 ft | 432 kts | 309° |
| 2026-04-22 11:00 | 25.78137 | 109.58606 | 32049 ft | 423 kts | 291° |
| 2026-04-22 11:01 | 25.79924 | 109.52423 | 32049 ft | 421 kts | 284° |
| 2026-04-22 11:01 | 25.81567 | 109.46178 | 32062 ft | 422 kts | 284° |
| 2026-04-22 11:02 | 25.83223 | 109.39920 | 32061 ft | 423 kts | 284° |
| 2026-04-22 11:02 | 25.84871 | 109.33663 | 32063 ft | 423 kts | 284° |
| 2026-04-22 11:03 | 25.86518 | 109.27396 | 32064 ft | 423 kts | 284° |
| 2026-04-22 11:03 | 25.88153 | 109.21130 | 32066 ft | 422 kts | 284° |
| 2026-04-22 11:04 | 25.89785 | 109.14869 | 32067 ft | 422 kts | 284° |
| 2026-04-22 11:04 | 25.91411 | 109.08611 | 32065 ft | 422 kts | 284° |
| 2026-04-22 11:05 | 25.93042 | 109.02352 | 32064 ft | 422 kts | 284° |
| 2026-04-22 11:05 | 25.94706 | 108.96100 | 32065 ft | 422 kts | 284° |
| 2026-04-22 11:06 | 25.96377 | 108.89852 | 32064 ft | 421 kts | 284° |
| 2026-04-22 11:06 | 25.98034 | 108.83608 | 32062 ft | 421 kts | 284° |
| 2026-04-22 11:07 | 25.99686 | 108.77357 | 32059 ft | 421 kts | 284° |
| 2026-04-22 11:07 | 26.01331 | 108.71110 | 32061 ft | 421 kts | 284° |
| 2026-04-22 11:08 | 26.02996 | 108.64871 | 32060 ft | 421 kts | 284° |
| 2026-04-22 11:08 | 26.04660 | 108.58640 | 32061 ft | 420 kts | 284° |
| 2026-04-22 11:09 | 26.06318 | 108.52401 | 32064 ft | 420 kts | 284° |
| 2026-04-22 11:09 | 26.07963 | 108.46163 | 32060 ft | 420 kts | 284° |
| 2026-04-22 11:10 | 26.09589 | 108.40032 | 32708 ft | 396 kts | 283° |
| 2026-04-22 11:10 | 26.10365 | 108.37141 | 33348 ft | 386 kts | 283° |
| 2026-04-22 11:10 | 26.11125 | 108.34315 | 33980 ft | 376 kts | 283° |
| 2026-04-22 11:10 | 26.11869 | 108.31558 | 34533 ft | 367 kts | 283° |
| 2026-04-22 11:11 | 26.12595 | 108.28875 | 35084 ft | 357 kts | 283° |
| 2026-04-22 11:11 | 26.13305 | 108.26265 | 35639 ft | 348 kts | 283° |
| 2026-04-22 11:11 | 26.13998 | 108.23721 | 36216 ft | 339 kts | 283° |
| 2026-04-22 11:11 | 26.14673 | 108.21254 | 36790 ft | 328 kts | 283° |
| 2026-04-22 11:12 | 26.15328 | 108.18871 | 37348 ft | 316 kts | 283° |
| 2026-04-22 11:12 | 26.15961 | 108.16584 | 37852 ft | 303 kts | 283° |
| 2026-04-22 11:12 | 26.16573 | 108.14389 | 38344 ft | 291 kts | 284° |
| 2026-04-22 11:12 | 26.17163 | 108.12286 | 38748 ft | 280 kts | 284° |
| 2026-04-22 11:13 | 26.17740 | 108.10235 | 38830 ft | 277 kts | 283° |
| 2026-04-22 11:13 | 26.18323 | 108.08151 | 38543 ft | 287 kts | 283° |
| 2026-04-22 11:13 | 26.18947 | 108.05985 | 38015 ft | 304 kts | 286° |
| 2026-04-22 11:13 | 26.19873 | 108.03745 | 37173 ft | 333 kts | 294° |
| 2026-04-22 11:14 | 26.21168 | 108.01525 | 36394 ft | 348 kts | 297° |
| 2026-04-22 11:14 | 26.22557 | 107.99290 | 35527 ft | 354 kts | 298° |
| 2026-04-22 11:14 | 26.24009 | 107.97025 | 34657 ft | 363 kts | 298° |
| 2026-04-22 11:14 | 26.25504 | 107.94723 | 33834 ft | 370 kts | 298° |
| 2026-04-22 11:15 | 26.27013 | 107.92396 | 33202 ft | 370 kts | 298° |
| 2026-04-22 11:15 | 26.28532 | 107.90067 | 32478 ft | 373 kts | 298° |
| 2026-04-22 11:15 | 26.30067 | 107.87717 | 32159 ft | 379 kts | 298° |
| 2026-04-22 11:15 | 26.31629 | 107.85310 | 32024 ft | 389 kts | 298° |
| 2026-04-22 11:16 | 26.33222 | 107.82843 | 32061 ft | 394 kts | 298° |
| 2026-04-22 11:16 | 26.35903 | 107.78664 | 32065 ft | 395 kts | 297° |
| 2026-04-22 11:17 | 26.38549 | 107.73368 | 32059 ft | 389 kts | 289° |
| 2026-04-22 11:17 | 26.41080 | 107.66977 | 32074 ft | 387 kts | 288° |
| 2026-04-22 11:18 | 26.42917 | 107.62376 | 32080 ft | 388 kts | 289° |
| 2026-04-22 11:18 | 26.45214 | 107.56921 | 32073 ft | 388 kts | 290° |
| 2026-04-22 11:19 | 26.47545 | 107.51490 | 32075 ft | 388 kts | 289° |
| 2026-04-22 11:19 | 26.49870 | 107.46049 | 32073 ft | 388 kts | 289° |
| 2026-04-22 11:20 | 26.52149 | 107.40682 | 32069 ft | 388 kts | 289° |
| 2026-04-22 11:20 | 26.54438 | 107.35259 | 32076 ft | 388 kts | 289° |
| 2026-04-22 11:21 | 26.56737 | 107.29809 | 32079 ft | 388 kts | 289° |
| 2026-04-22 11:21 | 26.59045 | 107.24353 | 32082 ft | 388 kts | 289° |
| 2026-04-22 11:22 | 26.61335 | 107.18943 | 32093 ft | 388 kts | 289° |
| 2026-04-22 11:22 | 26.63641 | 107.13489 | 32092 ft | 387 kts | 290° |
| 2026-04-22 11:23 | 26.65952 | 107.08051 | 32095 ft | 388 kts | 289° |
| 2026-04-22 11:23 | 26.68266 | 107.02604 | 32092 ft | 387 kts | 289° |
| 2026-04-22 11:24 | 26.70576 | 106.97162 | 32093 ft | 388 kts | 289° |
| 2026-04-22 11:24 | 26.72889 | 106.91707 | 32094 ft | 388 kts | 289° |
| 2026-04-22 11:25 | 26.75197 | 106.86250 | 32096 ft | 388 kts | 289° |
| 2026-04-22 11:25 | 26.77502 | 106.80785 | 32094 ft | 388 kts | 290° |
| 2026-04-22 11:26 | 26.80823 | 106.75897 | 32091 ft | 408 kts | 310° |
| 2026-04-22 11:26 | 26.85123 | 106.71723 | 32090 ft | 409 kts | 310° |
| 2026-04-22 11:27 | 26.89407 | 106.67534 | 32091 ft | 409 kts | 309° |
| 2026-04-22 11:27 | 26.93687 | 106.63330 | 32095 ft | 409 kts | 310° |
| 2026-04-22 11:28 | 26.97967 | 106.59133 | 32096 ft | 409 kts | 309° |
| 2026-04-22 11:28 | 27.02247 | 106.54930 | 32102 ft | 409 kts | 309° |
| 2026-04-22 11:29 | 27.06513 | 106.50729 | 32103 ft | 409 kts | 309° |
| 2026-04-22 11:29 | 27.10803 | 106.46516 | 32093 ft | 412 kts | 311° |
| 2026-04-22 11:30 | 27.15169 | 106.42210 | 32100 ft | 421 kts | 311° |
| 2026-04-22 11:30 | 27.19572 | 106.37869 | 32108 ft | 421 kts | 311° |
| 2026-04-22 11:31 | 27.24002 | 106.33537 | 32105 ft | 422 kts | 312° |
| 2026-04-22 11:31 | 27.28447 | 106.29234 | 32103 ft | 422 kts | 312° |
| 2026-04-22 11:32 | 27.32888 | 106.24919 | 32109 ft | 421 kts | 312° |
| 2026-04-22 11:32 | 27.37026 | 106.20879 | 32110 ft | 421 kts | 311° |
| 2026-04-22 11:33 | 27.41353 | 106.16635 | 32108 ft | 421 kts | 311° |
| 2026-04-22 11:33 | 27.45782 | 106.12315 | 32120 ft | 421 kts | 311° |
| 2026-04-22 11:34 | 27.50203 | 106.07994 | 32115 ft | 421 kts | 311° |
| 2026-04-22 11:34 | 27.54625 | 106.03669 | 32118 ft | 420 kts | 311° |
| 2026-04-22 11:35 | 27.59033 | 105.99351 | 32118 ft | 420 kts | 311° |
| 2026-04-22 11:35 | 27.63437 | 105.95018 | 32123 ft | 419 kts | 311° |
| 2026-04-22 11:36 | 27.67834 | 105.90686 | 32105 ft | 420 kts | 311° |
| 2026-04-22 11:36 | 27.71971 | 105.86128 | 32107 ft | 410 kts | 300° |
| 2026-04-22 11:37 | 27.74518 | 105.80567 | 32110 ft | 398 kts | 284° |
| 2026-04-22 11:37 | 27.76186 | 105.74597 | 32110 ft | 399 kts | 284° |
| 2026-04-22 11:38 | 27.77852 | 105.68633 | 32106 ft | 398 kts | 284° |
| 2026-04-22 11:38 | 27.80500 | 105.59736 | 32112 ft | 401 kts | 289° |
| 2026-04-22 11:39 | 27.82747 | 105.53965 | 32113 ft | 401 kts | 289° |
| 2026-04-22 11:39 | 27.84988 | 105.48187 | 32120 ft | 401 kts | 289° |
| 2026-04-22 11:40 | 27.87215 | 105.42414 | 32121 ft | 401 kts | 289° |
| 2026-04-22 11:40 | 27.89484 | 105.36655 | 32127 ft | 402 kts | 291° |
| 2026-04-22 11:41 | 27.91993 | 105.31003 | 32126 ft | 403 kts | 292° |
| 2026-04-22 11:41 | 27.94574 | 105.25391 | 32123 ft | 402 kts | 292° |
| 2026-04-22 11:42 | 27.97193 | 105.19798 | 32106 ft | 406 kts | 298° |
| 2026-04-22 11:42 | 28.01153 | 105.15120 | 32106 ft | 424 kts | 318° |
| 2026-04-22 11:43 | 28.06212 | 105.11566 | 32107 ft | 428 kts | 320° |
| 2026-04-22 11:43 | 28.11300 | 105.08035 | 32108 ft | 429 kts | 321° |
| 2026-04-22 11:44 | 28.16379 | 105.04493 | 32108 ft | 429 kts | 320° |
| 2026-04-22 11:44 | 28.21462 | 105.00924 | 32103 ft | 430 kts | 320° |
| 2026-04-22 11:45 | 28.26551 | 104.97357 | 32101 ft | 430 kts | 320° |
| 2026-04-22 11:45 | 28.31643 | 104.93789 | 32092 ft | 431 kts | 320° |
| 2026-04-22 11:46 | 28.36744 | 104.90200 | 32125 ft | 432 kts | 320° |
| 2026-04-22 11:46 | 28.41850 | 104.86609 | 32111 ft | 432 kts | 320° |
| 2026-04-22 11:47 | 28.46972 | 104.83030 | 32099 ft | 432 kts | 320° |
| 2026-04-22 11:47 | 28.52102 | 104.79453 | 32088 ft | 433 kts | 320° |
| 2026-04-22 11:48 | 28.57234 | 104.75861 | 32084 ft | 434 kts | 321° |
| 2026-04-22 11:48 | 28.62382 | 104.72254 | 32076 ft | 435 kts | 321° |
| 2026-04-22 11:49 | 28.67541 | 104.68630 | 32091 ft | 436 kts | 321° |
| 2026-04-22 11:49 | 28.72710 | 104.65005 | 32084 ft | 437 kts | 321° |
| 2026-04-22 11:50 | 28.77888 | 104.61360 | 31664 ft | 437 kts | 321° |
| 2026-04-22 11:50 | 28.80482 | 104.59529 | 30854 ft | 440 kts | 322° |
| 2026-04-22 11:50 | 28.83094 | 104.57682 | 30092 ft | 444 kts | 322° |
| 2026-04-22 11:51 | 28.85707 | 104.55836 | 29320 ft | 448 kts | 323° |
| 2026-04-22 11:51 | 28.88363 | 104.53955 | 28556 ft | 451 kts | 323° |
| 2026-04-22 11:51 | 28.91030 | 104.52059 | 27813 ft | 452 kts | 323° |
| 2026-04-22 11:51 | 28.93705 | 104.50155 | 27101 ft | 453 kts | 323° |
| 2026-04-22 11:52 | 28.96373 | 104.48250 | 26454 ft | 454 kts | 324° |
| 2026-04-22 11:52 | 28.99055 | 104.46334 | 25804 ft | 455 kts | 324° |
| 2026-04-22 11:52 | 29.01740 | 104.44413 | 25174 ft | 456 kts | 324° |
| 2026-04-22 11:52 | 29.04435 | 104.42490 | 24556 ft | 456 kts | 325° |
| 2026-04-22 11:53 | 29.07121 | 104.40576 | 23951 ft | 456 kts | 325° |
| 2026-04-22 11:53 | 29.09811 | 104.38657 | 23314 ft | 454 kts | 326° |
| 2026-04-22 11:53 | 29.12476 | 104.36754 | 22604 ft | 450 kts | 326° |
| 2026-04-22 11:53 | 29.15119 | 104.34862 | 21915 ft | 446 kts | 326° |
| 2026-04-22 11:54 | 29.17740 | 104.32981 | 21243 ft | 443 kts | 325° |
| 2026-04-22 11:54 | 29.20337 | 104.31119 | 20582 ft | 440 kts | 325° |
| 2026-04-22 11:54 | 29.22928 | 104.29262 | 19976 ft | 437 kts | 325° |
| 2026-04-22 11:54 | 29.25502 | 104.27417 | 19746 ft | 437 kts | 325° |
| 2026-04-22 11:55 | 29.28070 | 104.25557 | 19681 ft | 436 kts | 324° |
| 2026-04-22 11:55 | 29.30582 | 104.23638 | 19375 ft | 431 kts | 323° |
| 2026-04-22 11:55 | 29.33028 | 104.21682 | 18698 ft | 428 kts | 322° |
| 2026-04-22 11:55 | 29.35439 | 104.19700 | 17998 ft | 425 kts | 322° |
| 2026-04-22 11:56 | 29.37819 | 104.17730 | 17283 ft | 421 kts | 322° |
| 2026-04-22 11:56 | 29.40191 | 104.15778 | 16601 ft | 417 kts | 322° |
| 2026-04-22 11:56 | 29.42545 | 104.13857 | 15930 ft | 413 kts | 323° |
| 2026-04-22 11:56 | 29.44879 | 104.11972 | 15292 ft | 409 kts | 323° |
| 2026-04-22 11:57 | 29.47202 | 104.10103 | 14655 ft | 406 kts | 323° |
| 2026-04-22 11:57 | 29.49504 | 104.08253 | 14029 ft | 403 kts | 323° |
| 2026-04-22 11:57 | 29.51793 | 104.06414 | 13345 ft | 400 kts | 324° |
| 2026-04-22 11:57 | 29.54059 | 104.04589 | 12657 ft | 397 kts | 324° |
| 2026-04-22 11:58 | 29.55548 | 104.03386 | 12210 ft | 395 kts | 324° |
| 2026-04-22 11:58 | 29.58534 | 104.00967 | 11328 ft | 391 kts | 325° |
| 2026-04-22 11:58 | 29.60002 | 103.99779 | 11008 ft | 390 kts | 325° |
| 2026-04-22 11:58 | 29.62220 | 103.97983 | 10801 ft | 391 kts | 325° |
| 2026-04-22 11:59 | 29.64438 | 103.96189 | 10660 ft | 388 kts | 326° |
| 2026-04-22 11:59 | 29.67377 | 103.93809 | 9864 ft | 384 kts | 326° |
| 2026-04-22 11:59 | 29.68799 | 103.92658 | 9765 ft | 373 kts | 326° |
| 2026-04-22 11:59 | 29.70962 | 103.91133 | 9624 ft | 356 kts | 335° |
| 2026-04-22 12:00 | 29.73202 | 103.90092 | 9494 ft | 340 kts | 344° |
| 2026-04-22 12:00 | 29.75449 | 103.89492 | 9358 ft | 325 kts | 353° |
| 2026-04-22 12:00 | 29.77650 | 103.89290 | 9228 ft | 311 kts | 1° |
| 2026-04-22 12:00 | 29.79772 | 103.89448 | 9096 ft | 299 kts | 9° |
| 2026-04-22 12:01 | 29.81762 | 103.89915 | 8968 ft | 287 kts | 16° |
| 2026-04-22 12:01 | 29.83625 | 103.90647 | 8731 ft | 279 kts | 22° |
| 2026-04-22 12:01 | 29.85420 | 103.91475 | 8381 ft | 277 kts | 22° |
| 2026-04-22 12:01 | 29.87207 | 103.92302 | 8013 ft | 276 kts | 22° |
| 2026-04-22 12:02 | 29.88977 | 103.93122 | 7881 ft | 275 kts | 22° |
| 2026-04-22 12:02 | 29.90752 | 103.93941 | 7682 ft | 274 kts | 22° |
| 2026-04-22 12:02 | 29.92528 | 103.94725 | 7276 ft | 273 kts | 15° |
| 2026-04-22 12:02 | 29.94407 | 103.94867 | 6900 ft | 272 kts | 355° |
| 2026-04-22 12:03 | 29.96290 | 103.94608 | 6556 ft | 270 kts | 352° |
| 2026-04-22 12:03 | 29.98111 | 103.94315 | 6429 ft | 259 kts | 352° |
| 2026-04-22 12:03 | 29.99860 | 103.94029 | 6308 ft | 248 kts | 352° |
| 2026-04-22 12:03 | 30.01543 | 103.93755 | 6215 ft | 234 kts | 352° |
| 2026-04-22 12:04 | 30.03114 | 103.93497 | 6069 ft | 222 kts | 352° |
| 2026-04-22 12:04 | 30.04587 | 103.93173 | 5956 ft | 208 kts | 348° |
| 2026-04-22 12:04 | 30.05932 | 103.92819 | 5770 ft | 195 kts | 347° |
| 2026-04-22 12:04 | 30.07263 | 103.92460 | 5420 ft | 193 kts | 347° |
| 2026-04-22 12:05 | 30.08552 | 103.92116 | 5062 ft | 192 kts | 347° |
| 2026-04-22 12:05 | 30.09849 | 103.91774 | 4896 ft | 191 kts | 347° |
| 2026-04-22 12:05 | 30.11147 | 103.91434 | 4895 ft | 193 kts | 347° |
| 2026-04-22 12:05 | 30.12462 | 103.91091 | 4895 ft | 193 kts | 347° |
| 2026-04-22 12:06 | 30.13768 | 103.90751 | 4894 ft | 193 kts | 347° |
| 2026-04-22 12:06 | 30.15082 | 103.90410 | 4890 ft | 193 kts | 347° |
| 2026-04-22 12:06 | 30.16395 | 103.90069 | 4901 ft | 193 kts | 347° |
| 2026-04-22 12:06 | 30.17703 | 103.89730 | 4892 ft | 193 kts | 347° |
| 2026-04-22 12:07 | 30.19016 | 103.89391 | 4894 ft | 193 kts | 347° |
| 2026-04-22 12:07 | 30.20332 | 103.89051 | 4902 ft | 193 kts | 347° |
| 2026-04-22 12:07 | 30.21644 | 103.88712 | 4893 ft | 193 kts | 347° |
| 2026-04-22 12:07 | 30.22957 | 103.88372 | 4896 ft | 193 kts | 347° |
| 2026-04-22 12:08 | 30.24269 | 103.88034 | 4902 ft | 193 kts | 347° |
| 2026-04-22 12:08 | 30.25585 | 103.87694 | 4895 ft | 194 kts | 347° |
| 2026-04-22 12:08 | 30.26901 | 103.87355 | 4895 ft | 194 kts | 347° |
| 2026-04-22 12:08 | 30.28219 | 103.87014 | 4898 ft | 194 kts | 347° |
| 2026-04-22 12:09 | 30.29536 | 103.86673 | 4906 ft | 194 kts | 347° |
| 2026-04-22 12:09 | 30.30853 | 103.86331 | 4906 ft | 194 kts | 347° |
| 2026-04-22 12:09 | 30.32175 | 103.85988 | 4897 ft | 194 kts | 347° |
| 2026-04-22 12:09 | 30.33496 | 103.85645 | 4897 ft | 195 kts | 347° |
| 2026-04-22 12:10 | 30.34727 | 103.85324 | 4902 ft | 195 kts | 347° |
| 2026-04-22 12:10 | 30.36052 | 103.85006 | 4894 ft | 195 kts | 354° |
| 2026-04-22 12:10 | 30.37384 | 103.85194 | 4897 ft | 195 kts | 20° |
| 2026-04-22 12:10 | 30.38645 | 103.85775 | 4909 ft | 195 kts | 22° |
| 2026-04-22 12:11 | 30.39904 | 103.86360 | 4898 ft | 195 kts | 21° |
| 2026-04-22 12:11 | 30.41167 | 103.86947 | 4766 ft | 195 kts | 21° |
| 2026-04-22 12:11 | 30.42424 | 103.87530 | 4528 ft | 195 kts | 21° |
| 2026-04-22 12:11 | 30.43681 | 103.88113 | 4286 ft | 194 kts | 21° |
| 2026-04-22 12:12 | 30.44933 | 103.88694 | 4027 ft | 193 kts | 21° |
| 2026-04-22 12:12 | 30.46140 | 103.89254 | 3787 ft | 181 kts | 21° |
| 2026-04-22 12:12 | 30.47284 | 103.89786 | 3564 ft | 175 kts | 21° |
| 2026-04-22 12:12 | 30.48396 | 103.90302 | 3336 ft | 168 kts | 20° |
| 2026-04-22 12:13 | 30.49443 | 103.90789 | 3124 ft | 159 kts | 20° |
| 2026-04-22 12:13 | 30.50461 | 103.91261 | 2914 ft | 156 kts | 20° |
| 2026-04-22 12:13 | 30.51199 | 103.91615 | 2763 ft | 155 kts | 20° |
| 2026-04-22 12:14 | 30.52200 | 103.92075 | 2542 ft | 154 kts | 20° |
| 2026-04-22 12:14 | 30.53188 | 103.92532 | 2340 ft | 152 kts | 21° |
| 2026-04-22 12:14 | 30.54161 | 103.92983 | 2132 ft | 150 kts | 21° |
| 2026-04-22 12:14 | 30.55124 | 103.93430 | 1922 ft | 148 kts | 21° |
| 2026-04-22 12:15 | 30.56079 | 103.93874 | 1714 ft | 147 kts | 21° |
| 2026-04-22 12:15 | 30.57006 | 103.94299 | 1646 ft | 126 kts | 22° |
| 2026-04-22 12:15 | 30.57622 | 103.94595 | 1646 ft | 70 kts | 21° |
| 2026-04-22 12:15 | 30.57953 | 103.94747 | 1648 ft | 32 kts | 25° |
| 2026-04-22 12:16 | 30.58117 | 103.94866 | 1647 ft | 26 kts | 41° |
| 2026-04-22 12:16 | 30.58206 | 103.94983 | 1647 ft | 13 kts | 52° |
| 2026-04-22 12:16 | 30.58227 | 103.95051 | 1647 ft | 8 kts | 105° |
| 2026-04-22 12:16 | 30.58194 | 103.95076 | 1647 ft | 7 kts | 176° |
| 2026-04-22 12:17 | 30.58119 | 103.95047 | 1647 ft | 14 kts | 202° |
| 2026-04-22 12:17 | 30.58031 | 103.95005 | 1647 ft | 13 kts | 202° |
| 2026-04-22 12:17 | 30.57950 | 103.94967 | 1647 ft | 12 kts | 201° |
| 2026-04-22 12:17 | 30.57862 | 103.94926 | 1647 ft | 19 kts | 202° |
| 2026-04-22 12:18 | 30.57731 | 103.94866 | 1647 ft | 20 kts | 201° |
| 2026-04-22 12:18 | 30.57615 | 103.94811 | 1647 ft | 17 kts | 202° |
| 2026-04-22 12:18 | 30.57509 | 103.94760 | 1647 ft | 16 kts | 202° |
| 2026-04-22 12:18 | 30.57408 | 103.94713 | 1647 ft | 15 kts | 202° |
| 2026-04-22 12:19 | 30.57292 | 103.94657 | 1647 ft | 21 kts | 202° |
| 2026-04-22 12:19 | 30.57148 | 103.94589 | 1647 ft | 20 kts | 203° |
| 2026-04-22 12:19 | 30.57052 | 103.94574 | 1647 ft | 12 kts | 144° |
| 2026-04-22 12:19 | 30.56997 | 103.94619 | 1647 ft | 5 kts | 154° |
| 2026-04-22 12:20 | 30.56986 | 103.94621 | 1647 ft | 4 kts | 178° |
| 2026-04-22 12:20 | 30.56941 | 103.94602 | 1647 ft | 9 kts | 200° |
| 2026-04-22 12:20 | 30.56897 | 103.94627 | 1647 ft | 7 kts | 125° |
| 2026-04-22 12:20 | 30.56867 | 103.94707 | 1647 ft | 15 kts | 112° |
| 2026-04-22 12:21 | 30.56828 | 103.94814 | 1647 ft | 13 kts | 113° |
| 2026-04-22 12:21 | 30.56798 | 103.94905 | 1647 ft | 8 kts | 94° |
| 2026-04-22 12:21 | 30.56832 | 103.94946 | 1647 ft | 7 kts | 27° |
| 2026-04-22 12:21 | 30.56872 | 103.94965 | 1647 ft | 6 kts | 21° |
| 2026-04-22 12:22 | 30.56908 | 103.94981 | 1647 ft | 5 kts | 20° |
| 2026-04-22 12:22 | 30.56925 | 103.94988 | 1647 ft | 0 kts | 20° |